Time;durP1;ratioP1;P1;durP2;ratioP2;P2;SDS_P1;SDS_P2;PMS_P1;PMS_P2;Temp;Humidity;BMP_temperature;BMP_pressure;BME280_temperature;BME280_humidity;BME280_pressure;Samples;Min_cycle;Max_cycle;Signal;HPM_P1;HPM_P2
2021/05/26 00:02:00;;;;;;;;;;;10.70;88.30;;;9.78;55.41;95969.28;10287032;28;2079;-85
2021/05/26 00:07:02;;;;;;;;;;;10.80;88.60;;;9.85;55.11;95961.78;10275523;28;2272;-84
2021/05/26 00:12:05;;;;;;;;;;;10.80;88.60;;;9.82;55.59;95955.06;10267837;28;2367;-82
2021/05/26 00:17:07;;;;;;;;;;;10.90;88.70;;;9.80;55.36;95951.84;10368518;28;2061;-83
2021/05/26 00:22:10;;;;;;;;;;;10.90;88.70;;;9.74;55.06;95945.66;10371214;28;1919;-83
2021/05/26 00:27:12;;;;;;;;;;;10.80;88.60;;;9.66;55.25;95948.84;10371916;28;2131;-84
2021/05/26 00:32:14;;;;;;;;;;;10.80;88.30;;;9.58;54.81;95941.28;10362881;28;1998;-84
2021/05/26 00:37:17;;;;;;;;;;;10.70;88.40;;;9.50;55.40;95927.59;10314816;28;2158;-84
2021/05/26 00:42:19;;;;;;;;;;;10.70;88.60;;;9.48;55.35;95930.53;10285741;28;2007;-84
2021/05/26 00:47:22;;;;;;;;;;;10.70;88.90;;;9.47;55.60;95918.97;10381917;28;1959;-82
2021/05/26 00:52:25;;;;;;;;;;;10.60;89.00;;;9.42;55.49;95915.50;10353327;28;1758;-82
2021/05/26 00:57:27;;;;;;;;;;;10.60;89.00;;;9.35;56.14;95909.53;10364598;28;1846;-83
2021/05/26 01:02:30;;;;;;;;;;;10.50;89.40;;;9.30;55.90;95910.34;10303598;28;2255;-83
2021/05/26 01:07:32;;;;;;;;;;;10.40;89.60;;;9.19;56.30;95906.78;10371184;28;2015;-84
2021/05/26 01:12:35;;;;;;;;;;;10.40;89.90;;;9.08;57.78;95905.13;10359191;28;1952;-83
2021/05/26 01:17:38;;;;;;;;;;;10.30;90.60;;;8.96;58.05;95896.47;10373879;28;2188;-84
2021/05/26 01:22:40;;;;;;;;;;;10.20;91.40;;;8.93;58.79;95903.19;10355940;28;1419;-82
2021/05/26 01:27:43;;;;;;;;;;;10.10;92.50;;;8.85;59.57;95884.91;10339521;28;2045;-83
2021/05/26 01:32:45;;;;;;;;;;;10.00;93.00;;;8.73;59.57;95887.00;10340950;28;1383;-83
2021/05/26 01:37:48;;;;;;;;;;;10.00;93.50;;;8.60;60.47;95879.41;10265500;28;1746;-84
2021/05/26 01:42:50;;;;;;;;;;;9.90;94.20;;;8.43;60.82;95873.38;10329551;28;1908;-84
2021/05/26 01:47:53;;;;;;;;;;;10.50;94.40;;;8.39;61.13;95870.41;10361638;28;1891;-84
2021/05/26 01:52:55;;;;;;;;;;;9.60;94.50;;;8.41;60.41;95867.47;10352432;28;1761;-82
2021/05/26 01:57:57;;;;;;;;;;;10.50;95.30;;;8.34;61.23;95871.16;10260308;28;2114;-82
2021/05/26 02:03:00;;;;;;;;;;;9.60;95.00;;;8.32;61.13;95864.44;10335181;28;2467;-82
2021/05/26 02:08:02;;;;;;;;;;;10.50;95.90;;;8.37;61.16;95857.25;10263193;28;2531;-81
2021/05/26 02:13:05;;;;;;;;;;;9.50;95.90;;;8.24;61.30;95852.31;10339522;28;2204;-84
2021/05/26 02:18:07;;;;;;;;;;;9.50;96.00;;;8.23;60.99;95855.25;10264856;28;1650;-81
2021/05/26 02:23:13;;;;;;;;;;;9.50;96.30;;;8.25;60.84;95861.16;10318720;28;2063;-85
2021/05/26 02:28:15;;;;;;;;;;;10.00;96.70;;;8.29;61.24;95852.38;10260654;28;2263;-82
2021/05/26 02:33:18;;;;;;;;;;;9.20;96.70;;;8.30;60.71;95847.81;10282740;28;2122;-84
2021/05/26 02:38:20;;;;;;;;;;;9.90;97.00;;;8.26;61.24;95844.03;10275953;28;1933;-84
2021/05/26 02:43:22;;;;;;;;;;;9.40;96.40;;;8.29;60.62;95838.16;10281608;28;2122;-83
2021/05/26 02:48:25;;;;;;;;;;;9.40;96.50;;;8.30;60.30;95835.22;10273142;28;2144;-83
2021/05/26 02:53:27;;;;;;;;;;;10.00;96.70;;;8.16;61.85;95831.38;10346703;28;2016;-83
2021/05/26 02:58:30;;;;;;;;;;;9.40;96.70;;;8.07;61.56;95828.34;10326986;28;2118;-83
2021/05/26 03:03:32;;;;;;;;;;;9.30;97.40;;;7.92;62.37;95820.22;10266124;28;1900;-84
2021/05/26 03:08:35;;;;;;;;;;;9.20;97.70;;;7.84;63.69;95821.50;10272183;28;2086;-85
2021/05/26 03:13:37;;;;;;;;;;;10.10;99.20;;;7.79;63.44;95812.63;10341300;28;1960;-84
2021/05/26 03:18:40;;;;;;;;;;;9.00;99.20;;;7.78;63.73;95808.31;10345464;28;2053;-84
2021/05/26 03:23:43;;;;;;;;;;;9.80;99.80;;;7.75;62.91;95811.50;10343020;28;1974;-84
2021/05/26 03:28:46;;;;;;;;;;;9.70;99.90;;;7.81;63.29;95805.94;10266505;28;1981;-86
2021/05/26 03:33:48;;;;;;;;;;;9.50;99.90;;;7.78;64.26;95805.66;10266333;28;2123;-85
2021/05/26 03:38:51;;;;;;;;;;;9.80;99.90;;;7.89;63.63;95802.00;10315622;28;2185;-85
2021/05/26 03:43:53;;;;;;;;;;;8.90;99.90;;;8.01;62.59;95802.59;10326539;28;2045;-84
2021/05/26 03:48:55;;;;;;;;;;;9.00;99.90;;;8.37;61.65;95800.22;10281741;28;2054;-84
2021/05/26 03:53:58;;;;;;;;;;;9.20;99.90;;;8.91;60.02;95803.44;10375646;28;2141;-84
2021/05/26 03:59:01;;;;;;;;;;;10.30;99.80;;;9.31;57.88;95793.91;10277007;28;1848;-84
2021/05/26 04:04:04;;;;;;;;;;;9.90;98.10;;;9.71;56.54;95793.16;10333971;28;2114;-85
2021/05/26 04:09:06;;;;;;;;;;;10.30;97.10;;;9.84;55.66;95789.16;10275099;28;2212;-84
2021/05/26 04:14:08;;;;;;;;;;;10.60;95.50;;;9.86;55.08;95783.50;10341545;28;2113;-84
2021/05/26 04:19:31;;;;;;;;;;;10.70;94.60;;;10.08;55.00;95784.06;10286540;28;1994;-82
2021/05/26 04:24:53;;;;;;;;;;;10.80;94.40;;;9.98;55.70;95781.34;10274194;28;2099;-84
2021/05/26 04:30:15;;;;;;;;;;;10.90;94.30;;;10.02;55.39;95779.75;10282441;28;1960;-81
2021/05/26 04:35:37;;;;;;;;;;;10.90;94.20;;;10.06;54.67;95788.91;10277090;28;2183;-83
2021/05/26 04:41:00;;;;;;;;;;;10.90;93.50;;;10.29;54.03;95777.59;10276507;28;2118;-86
2021/05/26 04:46:22;;;;;;;;;;;11.00;93.20;;;10.44;53.71;95781.34;10293256;28;1899;-83
2021/05/26 04:51:45;;;;;;;;;;;11.20;92.70;;;10.73;53.28;95776.94;10266098;28;2182;-83
2021/05/26 04:57:08;;;;;;;;;;;11.40;92.50;;;11.57;50.65;95775.19;10300396;28;2397;-84
2021/05/26 05:02:30;;;;;;;;;;;11.90;91.60;;;12.02;49.48;95778.66;10273401;28;1981;-84
2021/05/26 05:07:53;;;;;;;;;;;12.50;90.00;;;11.87;49.98;95771.50;10270699;28;2090;-83
2021/05/26 05:13:14;;;;;;;;;;;12.70;88.90;;;12.01;48.58;95777.03;10261773;28;2209;-83
2021/05/26 05:18:35;;;;;;;;;;;12.70;88.00;;;11.99;48.29;95783.81;10280544;28;1930;-85
2021/05/26 05:23:38;;;;;;;;;;;12.80;87.20;;;12.30;47.91;95777.06;10350443;28;2173;-83
2021/05/26 05:28:41;;;;;;;;;;;12.90;86.80;;;12.85;46.11;95772.19;10268084;28;1944;-83
2021/05/26 05:33:44;;;;;;;;;;;13.30;86.10;;;13.30;44.94;95770.03;10262289;28;2091;-83
2021/05/26 05:38:46;;;;;;;;;;;13.60;85.10;;;13.39;44.34;95779.06;10334128;28;2060;-82
2021/05/26 05:43:49;;;;;;;;;;;13.90;83.80;;;13.56;44.79;95765.09;10269298;28;2153;-84
2021/05/26 05:48:51;;;;;;;;;;;14.10;83.60;;;14.06;43.40;95763.50;10331682;28;2174;-84
2021/05/26 05:53:54;;;;;;;;;;;14.40;82.60;;;14.42;42.70;95762.84;10270320;28;1832;-83
2021/05/26 05:58:56;;;;;;;;;;;14.80;81.90;;;14.85;41.74;95763.44;10349811;28;2132;-84
2021/05/26 06:03:58;;;;;;;;;;;15.30;80.90;;;14.92;41.39;95754.91;10324348;28;2162;-85
2021/05/26 06:09:01;;;;;;;;;;;15.40;79.30;;;15.25;40.35;95741.25;10263803;28;2159;-84
2021/05/26 06:14:05;;;;;;;;;;;15.50;78.80;;;15.60;39.58;95748.59;10325344;28;2131;-83
2021/05/26 06:19:08;;;;;;;;;;;15.90;78.00;;;15.91;38.82;95746.00;10293311;28;1887;-82
2021/05/26 06:24:10;;;;;;;;;;;16.20;77.10;;;16.28;38.10;95749.41;10257636;28;2174;-83
2021/05/26 06:29:13;;;;;;;;;;;16.60;75.90;;;16.20;38.17;95737.41;10334148;28;2131;-85
2021/05/26 06:34:15;;;;;;;;;;;16.70;75.40;;;15.70;37.61;95730.50;10331669;28;1843;-84
2021/05/26 06:39:21;;;;;;;;;;;16.90;72.70;;;16.43;37.09;95735.47;10284577;28;2110;-83
2021/05/26 06:44:25;;;;;;;;;;;17.00;73.00;;;16.90;35.64;95732.34;10358246;28;1913;-83
2021/05/26 06:49:27;;;;;;;;;;;17.10;72.70;;;17.06;35.97;95733.50;10269468;28;1976;-83
2021/05/26 06:54:30;;;;;;;;;;;17.50;72.60;;;17.43;35.74;95723.16;10281349;28;1622;-82
2021/05/26 06:59:32;;;;;;;;;;;17.80;72.00;;;17.57;35.11;95707.53;10325913;28;2016;-81
2021/05/26 07:04:34;;;;;;;;;;;18.00;71.20;;;17.40;35.85;95713.75;10257730;28;2198;-82
2021/05/26 07:09:37;;;;;;;;;;;18.10;71.10;;;17.70;34.19;95709.28;10254583;28;1845;-85
2021/05/26 07:14:39;;;;;;;;;;;18.30;69.90;;;17.44;35.29;95706.56;10264669;28;1340;-81
2021/05/26 07:19:44;;;;;;;;;;;18.30;69.60;;;17.72;34.12;95689.97;10281602;28;1664;-84
2021/05/26 07:24:46;;;;;;;;;;;18.20;68.70;;;17.89;33.65;95692.69;10368029;28;1981;-85
2021/05/26 07:29:49;;;;;;;;;;;18.50;68.00;;;18.17;33.24;95682.22;10323708;28;2071;-80
2021/05/26 07:34:51;;;;;;;;;;;18.60;67.70;;;17.84;34.16;95681.97;10325532;28;2034;-82
2021/05/26 07:39:54;;;;;;;;;;;18.60;67.30;;;18.87;31.97;95674.59;10253218;28;2379;-81
2021/05/26 07:44:56;;;;;;;;;;;19.00;67.10;;;18.69;31.95;95657.56;10325701;28;2125;-80
2021/05/26 07:49:59;;;;;;;;;;;19.30;65.70;;;18.22;32.76;95665.72;10268237;28;1848;-81
2021/05/26 07:55:01;;;;;;;;;;;19.20;65.30;;;18.39;32.61;95654.00;10332731;28;2238;-82
2021/05/26 08:00:03;;;;;;;;;;;19.00;66.10;;;18.55;33.41;95652.31;10255122;28;1922;-81
2021/05/26 08:05:06;;;;;;;;;;;19.10;66.30;;;19.26;32.65;95645.34;10334556;28;2023;-83
2021/05/26 08:10:08;;;;;;;;;;;19.40;66.70;;;19.43;31.57;95640.56;10263973;28;2107;-81
2021/05/26 08:15:10;;;;;;;;;;;19.90;64.30;;;18.80;32.15;95642.44;10260438;28;2272;-82
2021/05/26 08:20:12;;;;;;;;;;;19.70;63.90;;;18.62;32.39;95638.19;10345466;28;1889;-82
2021/05/26 08:25:15;;;;;;;;;;;19.60;64.10;;;18.67;31.98;95639.97;10259951;28;2063;-84
2021/05/26 08:30:17;;;;;;;;;;;19.50;63.70;;;18.29;32.32;95625.19;10289645;28;1668;-82
2021/05/26 08:35:20;;;;;;;;;;;19.30;63.10;;;18.34;32.52;95635.13;10343328;28;1899;-86
2021/05/26 08:40:22;;;;;;;;;;;19.10;63.50;;;18.59;32.87;95631.47;10341103;28;2226;-79
2021/05/26 08:45:25;;;;;;;;;;;19.10;64.20;;;18.39;32.23;95626.78;10279863;28;2060;-83
2021/05/26 08:50:28;;;;;;;;;;;19.20;63.30;;;18.75;31.68;95626.28;10289713;28;1947;-82
2021/05/26 08:55:31;;;;;;;;;;;19.30;63.00;;;18.27;33.29;95623.94;10318004;28;2143;-81
2021/05/26 09:00:34;;;;;;;;;;;19.20;63.30;;;18.32;32.84;95624.56;10345441;28;2087;-82
2021/05/26 09:05:37;;;;;;;;;;;19.00;63.60;;;17.40;33.93;95615.94;10300710;28;2036;-84
2021/05/26 09:10:40;;;;;;;;;;;18.60;63.70;;;17.11;35.37;95611.13;10285880;28;1689;-82
2021/05/26 09:15:42;;;;;;;;;;;18.20;65.00;;;17.37;34.91;95608.44;10350543;28;2063;-84
2021/05/26 09:20:45;;;;;;;;;;;18.10;65.30;;;17.52;34.75;95620.72;10293072;28;1911;-83
2021/05/26 09:25:48;;;;;;;;;;;18.20;65.60;;;17.47;35.35;95618.16;10304515;28;1887;-83
2021/05/26 09:30:52;;;;;;;;;;;18.20;66.00;;;17.18;36.60;95610.69;10350623;28;1897;-83
2021/05/26 09:35:57;;;;;;;;;;;18.00;66.80;;;17.63;35.44;95600.25;10355429;28;1625;-83
2021/05/26 09:41:00;;;;;;;;;;;18.00;66.80;;;18.19;34.81;95584.75;10344798;28;2015;-84
2021/05/26 09:46:03;;;;;;;;;;;18.60;66.80;;;18.92;33.38;95554.59;10282105;28;2034;-82
2021/05/26 09:51:11;;;;;;;;;;;19.30;65.40;;;19.03;32.14;95579.50;10344152;28;2134;-85
2021/05/26 09:56:14;;;;;;;;;;;19.70;63.30;;;19.11;31.64;95582.16;10355390;28;2176;-81
2021/05/26 10:01:18;;;;;;;;;;;19.80;62.70;;;19.84;31.02;95587.13;10369189;28;2318;-83
2021/05/26 10:06:24;;;;;;;;;;;20.00;62.70;;;19.81;31.81;95590.53;10338594;28;2429;-85
2021/05/26 10:11:27;;;;;;;;;;;20.20;62.80;;;19.90;31.08;95585.78;10364186;28;2065;-83
2021/05/26 10:16:32;;;;;;;;;;;20.40;62.10;;;20.44;30.25;95582.91;10357727;28;1945;-82
2021/05/26 10:21:37;;;;;;;;;;;20.60;61.90;;;19.50;31.51;95579.28;10355179;28;2141;-83
2021/05/26 10:26:40;;;;;;;;;;;20.70;61.00;;;20.07;30.52;95578.53;10369739;28;2399;-85
2021/05/26 10:31:44;;;;;;;;;;;20.50;61.50;;;19.80;31.25;95580.75;10376789;28;1845;-83
2021/05/26 10:36:49;;;;;;;;;;;20.50;61.50;;;18.91;33.17;95574.78;10296719;28;1943;-84
2021/05/26 10:41:52;;;;;;;;;;;20.10;62.20;;;18.46;34.54;95561.75;10296176;28;1928;-83
2021/05/26 10:46:56;;;;;;;;;;;19.40;63.90;;;18.68;34.20;95549.78;10351922;28;2206;-83
2021/05/26 10:52:01;;;;;;;;;;;19.40;64.20;;;18.78;33.63;95548.59;10278962;28;1989;-83
2021/05/26 10:57:04;;;;;;;;;;;19.40;64.20;;;18.70;33.80;95558.41;10360229;28;2570;-83
2021/05/26 11:02:07;;;;;;;;;;;19.50;64.20;;;19.05;33.31;95556.25;10280864;28;2274;-81
2021/05/26 11:07:13;;;;;;;;;;;19.40;64.20;;;18.98;34.29;95560.63;10348944;28;2049;-85
2021/05/26 11:12:15;;;;;;;;;;;19.50;64.80;;;18.61;34.55;95568.53;10348138;28;2036;-80
2021/05/26 11:17:20;;;;;;;;;;;19.50;64.50;;;18.76;35.44;95556.28;10343567;28;2076;-82
2021/05/26 11:22:23;;;;;;;;;;;19.30;65.60;;;18.08;36.45;95550.88;10300042;28;2380;-85
2021/05/26 11:27:26;;;;;;;;;;;19.00;66.10;;;18.12;36.14;95549.09;10346576;28;2097;-83
2021/05/26 11:32:37;;;;;;;;;;;18.80;66.00;;;18.20;35.35;95542.84;10350970;28;2126;-83
2021/05/26 11:37:41;;;;;;;;;;;18.80;65.60;;;18.65;35.52;95536.81;10386366;28;1806;-83
2021/05/26 11:42:44;;;;;;;;;;;19.00;65.80;;;19.24;35.02;95528.53;10352052;28;2052;-84
2021/05/26 11:47:48;;;;;;;;;;;19.60;65.90;;;19.61;32.52;95540.38;10392978;28;1953;-82
2021/05/26 11:52:51;;;;;;;;;;;20.10;63.10;;;19.42;32.54;95529.16;10331158;28;1398;-83
2021/05/26 11:57:54;;;;;;;;;;;20.20;62.30;;;19.60;31.99;95527.09;10333162;28;2020;-81
2021/05/26 12:02:57;;;;;;;;;;;20.20;62.00;;;19.50;31.49;95541.09;10354307;28;1760;-84
2021/05/26 12:08:03;;;;;;;;;;;20.20;61.10;;;19.21;33.42;95528.38;10273452;28;1960;-82
2021/05/26 12:13:06;;;;;;;;;;;20.00;62.80;;;19.36;33.51;95531.28;10287506;28;2078;-81
2021/05/26 12:18:09;;;;;;;;;;;20.10;62.50;;;19.36;32.55;95522.31;10345502;28;1693;-82
2021/05/26 12:23:14;;;;;;;;;;;20.20;62.10;;;18.86;34.72;95526.75;10341851;28;1974;-82
2021/05/26 12:28:19;;;;;;;;;;;19.80;63.80;;;19.17;34.21;95515.44;10276459;28;1983;-80
2021/05/26 12:33:22;;;;;;;;;;;19.70;64.20;;;19.59;33.00;95514.56;10345749;28;1690;-83
2021/05/26 12:38:25;;;;;;;;;;;20.10;63.30;;;19.01;34.59;95517.16;10346361;28;2037;-84
2021/05/26 12:43:28;;;;;;;;;;;19.90;63.90;;;19.15;35.20;95525.88;10298305;28;1582;-85
2021/05/26 12:48:32;;;;;;;;;;;19.90;64.80;;;19.70;34.89;95521.19;10343893;28;1890;-83
2021/05/26 12:53:35;;;;;;;;;;;20.20;65.20;;;19.71;35.14;95528.22;10342570;28;1943;-85
2021/05/26 12:58:38;;;;;;;;;;;20.30;65.10;;;19.89;35.27;95529.63;10303523;28;1248;-82
2021/05/26 13:03:44;;;;;;;;;;;20.40;65.80;;;18.61;37.46;95538.59;10344013;28;1387;-84
2021/05/26 13:08:47;;;;;;;;;;;19.90;66.10;;;18.63;40.57;95555.38;10393421;28;2029;-84
2021/05/26 13:13:50;;;;;;;;;;;19.50;70.30;;;17.66;45.07;95558.03;10355524;28;1328;-85
2021/05/26 13:18:52;;;;;;;;;;;18.50;75.10;;;17.35;46.53;95555.53;10322670;28;2160;-85
2021/05/26 13:23:54;;;;;;;;;;;18.40;77.00;;;16.98;48.63;95555.84;10243102;28;2011;-81
2021/05/26 13:28:57;;;;;;;;;;;17.80;79.00;;;17.83;45.94;95566.97;10333738;28;2078;-84
2021/05/26 13:34:02;;;;;;;;;;;18.20;78.90;;;17.87;45.29;95563.59;10264503;28;2091;-81
2021/05/26 13:39:05;;;;;;;;;;;18.60;77.50;;;17.29;46.87;95558.41;10339693;28;2064;-80
2021/05/26 13:44:08;;;;;;;;;;;18.20;78.10;;;17.11;47.54;95553.31;10255584;28;2111;-82
2021/05/26 13:49:13;;;;;;;;;;;18.00;78.90;;;17.48;46.70;95554.53;10266457;28;2134;-81
2021/05/26 13:54:16;;;;;;;;;;;18.20;79.30;;;17.09;47.93;95558.25;10268957;28;2075;-81
2021/05/26 13:59:19;;;;;;;;;;;18.00;80.00;;;17.20;47.83;95565.78;10263275;28;1981;-84
2021/05/26 14:04:21;;;;;;;;;;;18.00;79.90;;;17.11;48.17;95556.00;10327919;28;1897;-83
2021/05/26 14:09:24;;;;;;;;;;;17.80;80.50;;;16.98;48.72;95568.63;10337061;28;2074;-82
2021/05/26 14:14:27;;;;;;;;;;;17.70;81.30;;;16.88;49.08;95566.25;10342403;28;1854;-83
2021/05/26 14:19:30;;;;;;;;;;;17.70;81.90;;;17.27;48.86;95559.84;10277345;28;2004;-83
2021/05/26 14:24:36;;;;;;;;;;;17.70;82.70;;;17.11;48.63;95553.31;10363527;28;1754;-83
2021/05/26 14:29:38;;;;;;;;;;;17.80;81.80;;;16.37;49.29;95551.44;10345540;28;2150;-84
2021/05/26 14:34:43;;;;;;;;;;;17.50;81.70;;;16.12;50.99;95566.53;10262809;28;1947;-84
2021/05/26 14:39:49;;;;;;;;;;;17.10;83.40;;;16.09;52.47;95569.84;10314238;28;1973;-82
2021/05/26 14:44:52;;;;;;;;;;;16.90;85.40;;;16.42;51.93;95570.31;10321516;28;2115;-84
2021/05/26 14:49:54;;;;;;;;;;;16.90;86.60;;;16.27;51.21;95557.97;10348668;28;1949;-86
2021/05/26 14:54:57;;;;;;;;;;;17.10;85.60;;;16.51;51.35;95560.25;10303818;28;1996;-84
2021/05/26 15:00:00;;;;;;;;;;;17.00;86.20;;;16.28;52.14;95558.75;10317119;28;2340;-84
2021/05/26 15:05:04;;;;;;;;;;;17.00;86.40;;;16.30;52.46;95562.75;10308049;28;1559;-84
2021/05/26 15:10:06;;;;;;;;;;;16.90;87.10;;;16.23;53.49;95558.91;10275491;28;1967;-84
2021/05/26 15:15:08;;;;;;;;;;;16.90;88.00;;;15.41;55.63;95571.88;10276159;28;2551;-83
2021/05/26 15:20:11;;;;;;;;;;;16.40;88.90;;;15.59;55.71;95568.19;10328925;28;1900;-83
2021/05/26 15:25:16;;;;;;;;;;;16.30;90.60;;;15.87;54.56;95559.88;10326156;28;2044;-80
2021/05/26 15:30:22;;;;;;;;;;;16.60;89.90;;;14.95;57.41;95555.91;10317576;28;2101;-84
2021/05/26 15:35:25;;;;;;;;;;;16.50;90.10;;;15.16;56.79;95558.97;10255756;28;1987;-80
2021/05/26 15:40:27;;;;;;;;;;;16.00;91.50;;;15.50;56.61;95553.75;10263711;28;2156;-82
2021/05/26 15:45:29;;;;;;;;;;;16.20;92.60;;;15.58;57.10;95550.28;10265482;28;2119;-82
2021/05/26 15:50:32;;;;;;;;;;;16.30;92.80;;;15.27;60.18;95549.47;10252568;28;2075;-82
2021/05/26 15:55:34;;;;;;;;;;;16.30;95.50;;;15.05;63.61;95559.19;10284339;28;1964;-81
2021/05/26 16:00:36;;;;;;;;;;;16.10;99.10;;;14.86;65.82;95555.84;10304137;28;2072;-84
2021/05/26 16:05:50;;;;;;;;;;;16.00;99.90;;;14.48;69.13;95556.16;10272725;28;2093;-87
2021/05/26 16:10:53;;;;;;;;;;;15.70;99.90;;;14.06;72.62;95544.56;10315777;28;2254;-80
2021/05/26 16:16:00;;;;;;;;;;;15.40;99.90;;;13.81;78.40;95547.75;10245414;28;2442;-81
2021/05/26 16:21:05;;;;;;;;;;;15.10;99.90;;;13.27;80.34;95543.06;10256933;28;1884;-82
2021/05/26 16:26:07;;;;;;;;;;;14.70;99.90;;;13.04;83.27;95547.44;10246003;28;2101;-79
2021/05/26 16:31:11;;;;;;;;;;;14.30;99.90;;;12.80;84.25;95556.44;10268085;28;2117;-78
2021/05/26 16:36:13;;;;;;;;;;;14.00;99.90;;;12.53;85.59;95545.50;10261527;28;2109;-82
2021/05/26 16:41:16;;;;;;;;;;;13.80;99.90;;;12.38;90.26;95554.59;10275297;28;2084;-86
2021/05/26 16:46:18;;;;;;;;;;;13.50;99.90;;;12.29;89.84;95542.88;10333911;28;1994;-85
2021/05/26 16:51:45;;;;;;;;;;;13.40;99.90;;;12.25;89.27;95549.94;10318293;28;2092;-86
2021/05/26 16:56:59;;;;;;;;;;;13.30;99.90;;;12.15;89.37;95559.75;10332866;28;1809;-87
2021/05/26 17:02:02;;;;;;;;;;;13.20;99.90;;;12.21;87.75;95552.38;10329200;28;1676;-85
2021/05/26 17:07:11;;;;;;;;;;;13.20;99.90;;;12.28;87.53;95550.16;10281269;28;2098;-84
2021/05/26 17:12:13;;;;;;;;;;;13.20;99.90;;;12.29;87.81;95557.16;10323262;28;2381;-86
2021/05/26 17:17:18;;;;;;;;;;;13.20;99.90;;;12.05;82.27;95561.75;10275332;28;2257;-82
2021/05/26 17:22:23;;;;;;;;;;;13.10;99.90;;;11.97;83.75;95565.09;10345086;28;2183;-82
2021/05/26 17:27:25;;;;;;;;;;;13.00;99.90;;;11.90;82.90;95563.56;10345536;28;2198;-80
2021/05/26 17:32:28;;;;;;;;;;;12.90;99.90;;;11.87;84.62;95553.34;10334303;28;2122;-83
2021/05/26 17:37:36;;;;;;;;;;;12.90;99.90;;;11.76;83.05;95570.66;10279495;28;2182;-84
2021/05/26 17:42:39;;;;;;;;;;;12.80;99.90;;;11.74;80.83;95567.47;10304739;28;2151;-82
2021/05/26 17:47:42;;;;;;;;;;;12.80;99.90;;;11.77;83.62;95563.38;10351101;28;1895;-83
2021/05/26 17:52:45;;;;;;;;;;;12.70;99.90;;;11.73;83.88;95575.81;10345983;28;1272;-82
2021/05/26 17:57:51;;;;;;;;;;;12.70;99.90;;;11.65;82.83;95579.94;10276923;28;2092;-82
2021/05/26 18:02:54;;;;;;;;;;;12.70;99.90;;;11.56;83.09;95582.44;10279271;28;1557;-78
2021/05/26 18:08:00;;;;;;;;;;;12.60;99.90;;;11.53;82.56;95587.59;10297720;28;2249;-81
2021/05/26 18:13:05;;;;;;;;;;;12.50;99.90;;;11.47;83.30;95584.16;10303924;28;1636;-79
2021/05/26 18:18:09;;;;;;;;;;;12.50;99.90;;;11.40;85.15;95591.75;10288804;28;1894;-78
2021/05/26 18:23:12;;;;;;;;;;;12.40;99.90;;;11.24;87.40;95595.66;10261947;28;2150;-80
2021/05/26 18:28:17;;;;;;;;;;;12.30;99.90;;;11.09;87.42;95604.66;10273662;28;1919;-82
2021/05/26 18:33:27;;;;;;;;;;;12.20;99.90;;;10.98;89.82;95597.75;10332174;28;1383;-83
2021/05/26 18:38:34;;;;;;;;;;;12.40;99.90;;;10.82;91.72;95608.59;10336345;28;1772;-82
2021/05/26 18:43:37;;;;;;;;;;;11.90;99.90;;;10.74;91.09;95600.31;10348423;28;2163;-80
2021/05/26 18:48:39;;;;;;;;;;;11.80;99.90;;;10.60;93.35;95600.13;10265380;28;2077;-82
2021/05/26 18:53:42;;;;;;;;;;;11.70;99.90;;;10.54;93.11;95593.16;10333477;28;2664;-79
2021/05/26 18:58:45;;;;;;;;;;;11.60;99.90;;;10.48;93.39;95594.28;10313428;28;2050;-84
2021/05/26 19:03:49;;;;;;;;;;;11.60;99.90;;;10.45;94.19;95601.03;10309067;28;2100;-82
2021/05/26 19:08:59;;;;;;;;;;;11.50;99.90;;;10.45;94.66;95602.91;10248550;28;2121;-82
2021/05/26 19:14:01;;;;;;;;;;;11.50;99.90;;;10.40;94.96;95609.09;10321109;28;2040;-81
2021/05/26 19:19:05;;;;;;;;;;;11.40;99.90;;;10.36;95.75;95623.34;10258155;28;2200;-81
2021/05/26 19:24:07;;;;;;;;;;;11.40;99.90;;;10.29;95.77;95629.81;10315385;28;2217;-80
2021/05/26 19:29:12;;;;;;;;;;;11.30;99.90;;;10.20;96.21;95626.09;10310298;28;2088;-79
2021/05/26 19:34:14;;;;;;;;;;;11.20;99.90;;;10.18;97.61;95636.31;10313366;28;2194;-86
2021/05/26 19:39:18;;;;;;;;;;;11.20;99.90;;;10.07;97.31;95636.63;10280280;28;2217;-85
2021/05/26 19:44:34;;;;;;;;;;;11.10;99.90;;;10.02;97.72;95648.16;10273201;28;2324;-87
2021/05/26 19:49:42;;;;;;;;;;;11.00;99.90;;;9.94;98.41;95649.53;10333426;28;2103;-83
2021/05/26 19:54:47;;;;;;;;;;;11.00;99.90;;;9.95;99.69;95655.72;10268300;28;2083;-86
2021/05/26 20:00:10;;;;;;;;;;;10.90;99.90;;;9.87;98.90;95653.59;10266723;28;2315;-85
2021/05/26 20:05:12;;;;;;;;;;;10.90;99.90;;;9.89;99.38;95654.09;10316013;28;2131;-83
2021/05/26 20:10:22;;;;;;;;;;;10.90;99.90;;;9.80;99.30;95669.97;10329305;28;2092;-86
2021/05/26 20:15:24;;;;;;;;;;;10.80;99.90;;;9.82;99.13;95669.69;10332325;28;1969;-86
2021/05/26 20:20:30;;;;;;;;;;;10.80;99.90;;;9.72;99.75;95667.81;10331350;28;1844;-85
2021/05/26 20:25:32;;;;;;;;;;;10.70;99.90;;;9.73;100.00;95672.94;10334972;28;2053;-86
2021/05/26 20:30:35;;;;;;;;;;;10.70;99.90;;;9.70;100.00;95678.81;10272091;28;2056;-86
2021/05/26 20:35:37;;;;;;;;;;;10.70;99.90;;;9.67;100.00;95692.81;10348688;28;2019;-87
2021/05/26 20:40:39;;;;;;;;;;;10.60;99.90;;;9.61;100.00;95701.13;10343769;28;2149;-85
2021/05/26 20:45:42;;;;;;;;;;;10.60;99.90;;;9.63;100.00;95704.34;10352406;28;2047;-85
2021/05/26 20:50:47;;;;;;;;;;;10.60;99.90;;;9.23;96.62;95731.94;10273063;28;1929;-86
2021/05/26 20:55:53;;;;;;;;;;;10.40;99.90;;;8.72;95.51;95742.53;10338987;28;2001;-84
2021/05/26 21:00:58;;;;;;;;;;;9.90;99.90;;;8.41;96.95;95753.09;10332283;28;1633;-84
2021/05/26 21:06:04;;;;;;;;;;;10.00;99.90;;;8.26;98.16;95758.31;10339614;28;1977;-84
2021/05/26 21:11:07;;;;;;;;;;;9.30;99.90;;;8.22;98.90;95757.25;10265826;28;2084;-85
2021/05/26 21:16:10;;;;;;;;;;;10.00;99.90;;;8.25;99.50;95754.03;10347852;28;1760;-87
2021/05/26 21:21:13;;;;;;;;;;;9.10;99.90;;;8.26;100.00;95761.81;10346189;28;1796;-85
2021/05/26 21:26:17;;;;;;;;;;;9.10;99.90;;;8.30;100.00;95762.13;10342938;28;2018;-86
2021/05/26 21:31:20;;;;;;;;;;;9.20;99.90;;;8.27;100.00;95762.63;10349145;28;2112;-86
2021/05/26 21:36:24;;;;;;;;;;;9.50;99.90;;;8.25;100.00;95770.09;10330870;28;2128;-86
2021/05/26 21:41:28;;;;;;;;;;;9.10;99.90;;;8.22;100.00;95773.31;10273503;28;2036;-86
2021/05/26 21:46:31;;;;;;;;;;;9.60;99.90;;;8.26;100.00;95785.91;10336916;28;1861;-85
2021/05/26 21:51:35;;;;;;;;;;;9.20;99.90;;;8.23;100.00;95791.78;10343539;28;2136;-86
2021/05/26 21:56:42;;;;;;;;;;;9.40;99.90;;;8.20;100.00;95786.13;10342358;28;2238;-87
2021/05/26 22:01:46;;;;;;;;;;;9.70;99.90;;;8.07;100.00;95790.88;10274598;28;1675;-86
2021/05/26 22:06:51;;;;;;;;;;;9.00;99.90;;;8.03;100.00;95789.78;10336604;28;2144;-84
2021/05/26 22:11:58;;;;;;;;;;;9.30;99.90;;;7.99;100.00;95791.34;10282448;28;2349;-87
2021/05/26 22:17:02;;;;;;;;;;;8.90;99.90;;;7.99;100.00;95793.22;10343989;28;1870;-85
2021/05/26 22:22:06;;;;;;;;;;;8.80;99.90;;;7.92;100.00;95790.78;10277174;28;2001;-85
2021/05/26 22:27:12;;;;;;;;;;;9.10;99.90;;;7.94;100.00;95794.00;10344575;28;1883;-84
2021/05/26 22:32:15;;;;;;;;;;;9.10;99.90;;;7.94;100.00;95788.63;10337953;28;2051;-86
2021/05/26 22:37:21;;;;;;;;;;;8.80;99.90;;;7.93;100.00;95787.03;10342527;28;1904;-86
2021/05/26 22:42:25;;;;;;;;;;;8.80;99.90;;;7.89;100.00;95791.28;10337543;28;2098;-86
2021/05/26 22:47:29;;;;;;;;;;;9.00;99.90;;;7.92;100.00;95792.66;10263595;28;1954;-85
2021/05/26 22:52:32;;;;;;;;;;;8.80;99.90;;;7.91;100.00;95783.81;10323031;28;1920;-85
2021/05/26 22:57:37;;;;;;;;;;;9.30;99.90;;;7.88;100.00;95789.66;10323022;28;1857;-85
2021/05/26 23:02:41;;;;;;;;;;;8.70;99.90;;;7.94;100.00;95791.31;10323036;28;2123;-86
2021/05/26 23:07:44;;;;;;;;;;;8.80;99.90;;;7.97;100.00;95788.13;10336458;28;1899;-85
2021/05/26 23:12:47;;;;;;;;;;;9.30;99.90;;;7.98;100.00;95788.94;10321927;28;2005;-86
2021/05/26 23:17:50;;;;;;;;;;;9.10;99.90;;;7.98;100.00;95787.06;10332553;28;1993;-85
2021/05/26 23:22:53;;;;;;;;;;;8.90;99.90;;;7.95;100.00;95795.63;10326572;28;1843;-86